Time;durP1;ratioP1;P1;durP2;ratioP2;P2;SDS_P1;SDS_P2;PMS_P1;PMS_P2;Temp;Humidity;BMP_temperature;BMP_pressure;BME280_temperature;BME280_humidity;BME280_pressure;Samples;Min_cycle;Max_cycle;Signal;HPM_P1;HPM_P2
2022/12/11 00:01:28;;;;;;;;;;;16.50;39.80;;;;;;8387849;28;20353;-44
2022/12/11 00:05:29;;;;;;;;;;;16.50;39.90;;;;;;8377371;28;19928;-46
2022/12/11 00:09:29;;;;;;;;;;;16.50;39.80;;;;;;8373007;28;19931;-46
2022/12/11 00:13:30;;;;;;;;;;;16.50;39.80;;;;;;8387313;28;19920;-46
2022/12/11 00:17:30;;;;;;;;;;;16.50;39.70;;;;;;8377626;28;19917;-45
2022/12/11 00:21:31;;;;;;;;;;;16.50;39.70;;;;;;8373492;28;19913;-46
2022/12/11 00:25:31;;;;;;;;;;;16.50;39.70;;;;;;8387196;28;20294;-45
2022/12/11 00:29:31;;;;;;;;;;;16.50;39.70;;;;;;8377416;28;19921;-45
2022/12/11 00:33:32;;;;;;;;;;;16.50;39.70;;;;;;8372673;28;19928;-46
2022/12/11 00:37:32;;;;;;;;;;;16.50;39.60;;;;;;8386947;28;19933;-45
2022/12/11 00:41:33;;;;;;;;;;;16.50;39.70;;;;;;8377795;28;19923;-47
2022/12/11 00:45:37;;;;;;;;;;;16.50;39.60;;;;;;8372321;28;19921;-48
2022/12/11 00:49:38;;;;;;;;;;;16.50;39.60;;;;;;8386746;28;19987;-46
2022/12/11 00:53:38;;;;;;;;;;;16.50;39.60;;;;;;8378065;28;19923;-46
2022/12/11 00:57:38;;;;;;;;;;;16.50;39.60;;;;;;8371530;28;20089;-46
2022/12/11 01:01:39;;;;;;;;;;;16.50;39.60;;;;;;8386894;28;19990;-45
2022/12/11 01:05:39;;;;;;;;;;;16.50;39.60;;;;;;8377995;28;19939;-45
2022/12/11 01:13:59;;;;;;;;;;;16.50;39.60;;;;;;8372040;28;19923;-46
2022/12/11 01:17:59;;;;;;;;;;;16.50;39.50;;;;;;8377921;28;19948;-46
2022/12/11 01:22:00;;;;;;;;;;;16.50;39.50;;;;;;8392675;28;19913;-45
2022/12/11 01:26:08;;;;;;;;;;;16.50;39.50;;;;;;8378368;28;20443;-45
2022/12/11 01:30:09;;;;;;;;;;;16.50;39.50;;;;;;8381061;28;19932;-46
2022/12/11 01:34:10;;;;;;;;;;;16.50;39.50;;;;;;8391971;28;20008;-46
2022/12/11 01:38:10;;;;;;;;;;;16.50;39.50;;;;;;8379440;28;19969;-46
2022/12/11 01:42:15;;;;;;;;;;;16.50;39.50;;;;;;8380464;28;19912;-47
2022/12/11 01:46:15;;;;;;;;;;;16.50;39.50;;;;;;8391637;28;20000;-46
2022/12/11 01:50:17;;;;;;;;;;;16.50;39.40;;;;;;8379423;28;20293;-45
2022/12/11 01:54:19;;;;;;;;;;;16.50;39.40;;;;;;8379040;28;19924;-46
2022/12/11 01:58:21;;;;;;;;;;;16.50;39.40;;;;;;8391228;28;19928;-46
2022/12/11 02:02:24;;;;;;;;;;;16.40;39.30;;;;;;8380585;28;19951;-46
2022/12/11 02:06:33;;;;;;;;;;;16.40;39.30;;;;;;8377540;28;20374;-45
2022/12/11 02:10:47;;;;;;;;;;;16.40;39.30;;;;;;8390355;28;20288;-45
2022/12/11 02:14:52;;;;;;;;;;;16.40;39.30;;;;;;8366271;28;19944;-45
2022/12/11 02:19:03;;;;;;;;;;;16.40;39.30;;;;;;8365976;28;20365;-45
2022/12/11 02:23:03;;;;;;;;;;;16.50;39.30;;;;;;8366118;28;19913;-45
2022/12/11 02:27:27;;;;;;;;;;;16.40;39.20;;;;;;8366260;28;19916;-46
2022/12/11 02:31:28;;;;;;;;;;;16.40;39.30;;;;;;8365269;28;19931;-46
2022/12/11 02:35:36;;;;;;;;;;;16.40;39.20;;;;;;8388519;28;19916;-45
2022/12/11 02:39:39;;;;;;;;;;;16.50;39.20;;;;;;8398779;28;19919;-45
2022/12/11 02:43:40;;;;;;;;;;;16.40;39.20;;;;;;8398088;28;19916;-45
2022/12/11 02:47:42;;;;;;;;;;;16.50;39.20;;;;;;8398877;28;19998;-45
2022/12/11 02:51:43;;;;;;;;;;;16.40;39.20;;;;;;8398440;28;20255;-46
2022/12/11 02:55:44;;;;;;;;;;;16.40;39.10;;;;;;8397647;28;20028;-45
2022/12/11 02:59:44;;;;;;;;;;;16.40;39.10;;;;;;8398188;28;19948;-45
2022/12/11 03:03:45;;;;;;;;;;;16.40;39.10;;;;;;8397444;28;19916;-43
2022/12/11 03:07:45;;;;;;;;;;;16.40;39.10;;;;;;8397973;28;19913;-45
2022/12/11 03:11:46;;;;;;;;;;;16.40;39.10;;;;;;8397658;28;19924;-45
2022/12/11 03:16:02;;;;;;;;;;;16.40;39.10;;;;;;8397085;28;20011;-43
2022/12/11 03:20:10;;;;;;;;;;;16.40;39.00;;;;;;8397439;28;19921;-45
2022/12/11 03:24:17;;;;;;;;;;;16.40;39.10;;;;;;8397480;28;19920;-44
2022/12/11 03:28:27;;;;;;;;;;;16.40;39.10;;;;;;8396713;28;19920;-45
2022/12/11 03:32:30;;;;;;;;;;;16.40;39.10;;;;;;8397271;28;19932;-46
2022/12/11 03:36:31;;;;;;;;;;;16.40;39.10;;;;;;8396863;28;20425;-46
2022/12/11 03:40:33;;;;;;;;;;;16.40;39.00;;;;;;8396069;28;19922;-46
2022/12/11 03:44:34;;;;;;;;;;;16.40;39.00;;;;;;8396701;28;19916;-45
2022/12/11 03:48:36;;;;;;;;;;;16.40;39.00;;;;;;8396702;28;20031;-44
2022/12/11 03:52:40;;;;;;;;;;;16.40;39.00;;;;;;8396231;28;20046;-45
2022/12/11 03:56:41;;;;;;;;;;;16.40;39.00;;;;;;8396693;28;19920;-45
2022/12/11 04:00:42;;;;;;;;;;;16.40;39.00;;;;;;8396459;28;19912;-45
2022/12/11 04:04:43;;;;;;;;;;;16.40;39.00;;;;;;8396051;28;19920;-45
2022/12/11 04:08:43;;;;;;;;;;;16.40;38.90;;;;;;8396440;28;19928;-45
2022/12/11 04:12:43;;;;;;;;;;;16.40;38.90;;;;;;8396458;28;19928;-45
2022/12/11 04:16:44;;;;;;;;;;;16.30;38.90;;;;;;8395907;28;19944;-45
2022/12/11 04:25:05;;;;;;;;;;;16.40;38.90;;;;;;8395709;28;19927;-44
2022/12/11 04:29:06;;;;;;;;;;;16.40;38.90;;;;;;8396352;28;19916;-46
2022/12/11 04:33:06;;;;;;;;;;;16.40;38.90;;;;;;8396085;28;20027;-44
2022/12/11 04:37:06;;;;;;;;;;;16.40;38.90;;;;;;8395430;28;19916;-47
2022/12/11 04:41:08;;;;;;;;;;;16.40;38.80;;;;;;8395917;28;19917;-46
2022/12/11 04:45:09;;;;;;;;;;;16.50;38.90;;;;;;8395559;28;19916;-45
2022/12/11 04:49:10;;;;;;;;;;;16.50;38.80;;;;;;8395321;28;20003;-44
2022/12/11 04:53:10;;;;;;;;;;;16.50;38.70;;;;;;8397543;28;19927;-44
2022/12/11 04:57:11;;;;;;;;;;;16.50;38.70;;;;;;8401995;28;19917;-45
2022/12/11 05:01:12;;;;;;;;;;;16.50;38.70;;;;;;8401309;28;20346;-45
2022/12/11 05:05:13;;;;;;;;;;;16.60;38.60;;;;;;8399400;28;19916;-46
2022/12/11 05:09:14;;;;;;;;;;;16.60;38.70;;;;;;8368625;28;20004;-45
2022/12/11 05:13:14;;;;;;;;;;;16.60;38.60;;;;;;8367986;28;20050;-45
2022/12/11 05:17:15;;;;;;;;;;;16.60;39.20;;;;;;8368311;28;19921;-45
2022/12/11 05:21:15;;;;;;;;;;;16.50;38.40;;;;;;8368078;28;19928;-46
2022/12/11 05:25:16;;;;;;;;;;;16.50;38.40;;;;;;8367546;28;19923;-45
2022/12/11 05:29:16;;;;;;;;;;;16.50;38.40;;;;;;8368129;28;19917;-45
2022/12/11 05:33:16;;;;;;;;;;;16.50;38.50;;;;;;8367936;28;19974;-45
2022/12/11 05:37:17;;;;;;;;;;;16.40;38.40;;;;;;8367385;28;19924;-44
2022/12/11 05:41:19;;;;;;;;;;;16.50;38.50;;;;;;8367768;28;19996;-45
2022/12/11 05:45:19;;;;;;;;;;;16.40;38.50;;;;;;8367295;28;19927;-45
2022/12/11 05:49:20;;;;;;;;;;;16.40;38.60;;;;;;8366895;28;19914;-46
2022/12/11 05:53:20;;;;;;;;;;;16.40;38.60;;;;;;8367201;28;20362;-45
2022/12/11 05:57:21;;;;;;;;;;;16.40;38.60;;;;;;8366884;28;20325;-45
2022/12/11 06:01:23;;;;;;;;;;;16.40;38.60;;;;;;8366434;28;20012;-45
2022/12/11 06:05:23;;;;;;;;;;;16.30;38.60;;;;;;8366333;28;19920;-45
2022/12/11 06:09:24;;;;;;;;;;;16.30;38.70;;;;;;8366879;28;19921;-45
2022/12/11 06:13:24;;;;;;;;;;;16.30;38.70;;;;;;8366286;28;20386;-45
2022/12/11 06:17:25;;;;;;;;;;;16.30;38.70;;;;;;8366495;28;19924;-45
2022/12/11 06:21:26;;;;;;;;;;;16.30;38.70;;;;;;8366356;28;19912;-45
2022/12/11 06:25:27;;;;;;;;;;;16.20;38.70;;;;;;8365754;28;19917;-45
2022/12/11 06:29:28;;;;;;;;;;;16.30;38.70;;;;;;8366328;28;19916;-45
2022/12/11 06:33:29;;;;;;;;;;;16.30;38.70;;;;;;8366021;28;19982;-46
2022/12/11 06:37:29;;;;;;;;;;;16.20;38.60;;;;;;8365320;28;20015;-45
2022/12/11 06:41:30;;;;;;;;;;;16.20;38.60;;;;;;8365649;28;20421;-45
2022/12/11 06:45:30;;;;;;;;;;;16.20;38.50;;;;;;8365358;28;19999;-45
2022/12/11 06:49:31;;;;;;;;;;;16.30;38.60;;;;;;8364953;28;20302;-45
2022/12/11 06:53:31;;;;;;;;;;;16.30;38.50;;;;;;8365298;28;19929;-44
2022/12/11 06:57:32;;;;;;;;;;;16.40;38.50;;;;;;8365033;28;19917;-44
2022/12/11 07:01:32;;;;;;;;;;;16.40;38.40;;;;;;8364758;28;19917;-44
2022/12/11 07:05:32;;;;;;;;;;;16.40;38.40;;;;;;8364908;28;20016;-45
2022/12/11 07:09:33;;;;;;;;;;;16.40;38.30;;;;;;8364972;28;19974;-44
2022/12/11 07:13:34;;;;;;;;;;;16.50;38.40;;;;;;8364309;28;19928;-45
2022/12/11 07:17:35;;;;;;;;;;;16.50;38.30;;;;;;8363766;28;19978;-44
2022/12/11 07:21:35;;;;;;;;;;;16.50;38.30;;;;;;8364323;28;19917;-45
2022/12/11 07:25:36;;;;;;;;;;;16.50;38.30;;;;;;8363749;28;20382;-45
2022/12/11 07:29:37;;;;;;;;;;;16.40;38.10;;;;;;8364588;28;19920;-45
2022/12/11 07:33:37;;;;;;;;;;;16.40;38.10;;;;;;8363769;28;19924;-45
2022/12/11 07:37:41;;;;;;;;;;;16.40;38.10;;;;;;8363450;28;19920;-45
2022/12/11 07:41:42;;;;;;;;;;;16.40;38.10;;;;;;8364018;28;19916;-45
2022/12/11 07:45:42;;;;;;;;;;;16.30;38.20;;;;;;8363599;28;20377;-45
2022/12/11 07:49:42;;;;;;;;;;;16.40;38.30;;;;;;8363364;28;19917;-45
2022/12/11 07:53:44;;;;;;;;;;;16.30;38.30;;;;;;8363600;28;19936;-45
2022/12/11 07:57:44;;;;;;;;;;;16.30;38.40;;;;;;8363436;28;20000;-45
2022/12/11 08:01:45;;;;;;;;;;;16.30;38.40;;;;;;8361699;28;19917;-45
2022/12/11 08:05:47;;;;;;;;;;;16.30;38.50;;;;;;8363100;28;19916;-45
2022/12/11 08:09:47;;;;;;;;;;;16.20;38.50;;;;;;8362839;28;19921;-45
2022/12/11 08:13:48;;;;;;;;;;;16.20;38.50;;;;;;8394549;28;19985;-45
2022/12/11 08:17:48;;;;;;;;;;;16.20;38.40;;;;;;8396147;28;20403;-46
2022/12/11 08:21:49;;;;;;;;;;;16.20;38.30;;;;;;8395339;28;19959;-45
2022/12/11 08:25:49;;;;;;;;;;;16.20;38.30;;;;;;8393153;28;19916;-46
2022/12/11 08:29:50;;;;;;;;;;;16.20;38.40;;;;;;8369660;28;19920;-46
2022/12/11 08:33:51;;;;;;;;;;;16.30;38.30;;;;;;8369181;28;19917;-45
2022/12/11 08:37:51;;;;;;;;;;;16.40;38.30;;;;;;8369197;28;19956;-45
2022/12/11 08:41:51;;;;;;;;;;;16.40;38.30;;;;;;8369085;28;19917;-46
2022/12/11 08:45:52;;;;;;;;;;;16.40;38.20;;;;;;8368594;28;19939;-45
2022/12/11 08:49:52;;;;;;;;;;;16.50;38.20;;;;;;8369143;28;19974;-45
2022/12/11 08:53:54;;;;;;;;;;;16.50;38.10;;;;;;8369089;28;19925;-46
2022/12/11 08:57:54;;;;;;;;;;;16.50;38.10;;;;;;8368395;28;19917;-45
2022/12/11 09:01:55;;;;;;;;;;;16.50;38.10;;;;;;8368858;28;19971;-46
2022/12/11 09:05:55;;;;;;;;;;;16.50;38.00;;;;;;8368498;28;20003;-45
2022/12/11 09:09:56;;;;;;;;;;;16.50;38.10;;;;;;8368314;28;20003;-45
2022/12/11 09:13:56;;;;;;;;;;;16.50;38.00;;;;;;8368251;28;19924;-45
2022/12/11 09:17:56;;;;;;;;;;;16.40;37.90;;;;;;8368113;28;19941;-45
2022/12/11 09:21:57;;;;;;;;;;;16.50;37.90;;;;;;8367509;28;20266;-47
2022/12/11 09:25:58;;;;;;;;;;;16.40;37.90;;;;;;8368307;28;19923;-45
2022/12/11 09:29:58;;;;;;;;;;;16.40;38.00;;;;;;8367987;28;19917;-45
2022/12/11 09:34:03;;;;;;;;;;;16.40;38.10;;;;;;8367265;28;19975;-45
2022/12/11 09:38:04;;;;;;;;;;;16.40;38.10;;;;;;8366810;28;19925;-45
2022/12/11 09:42:10;;;;;;;;;;;16.40;38.10;;;;;;8367449;28;19917;-46
2022/12/11 09:46:12;;;;;;;;;;;16.30;38.20;;;;;;8366829;28;19917;-44
2022/12/11 09:50:16;;;;;;;;;;;16.30;38.30;;;;;;8367628;28;19925;-46
2022/12/11 09:54:17;;;;;;;;;;;16.30;38.30;;;;;;8367184;28;20394;-45
2022/12/11 09:58:36;;;;;;;;;;;16.30;38.30;;;;;;8366585;28;19920;-46
2022/12/11 10:03:03;;;;;;;;;;;16.30;38.30;;;;;;8367018;28;20341;-45
2022/12/11 10:07:12;;;;;;;;;;;16.30;38.30;;;;;;8366437;28;19950;-45
2022/12/11 10:11:16;;;;;;;;;;;16.30;38.30;;;;;;8366426;28;20032;-45
2022/12/11 10:15:29;;;;;;;;;;;16.20;38.30;;;;;;8366723;28;19922;-46
2022/12/11 10:19:30;;;;;;;;;;;16.30;38.30;;;;;;8365943;28;19917;-45
2022/12/11 10:23:40;;;;;;;;;;;16.40;38.30;;;;;;8366225;28;19962;-46
2022/12/11 10:27:42;;;;;;;;;;;16.40;38.30;;;;;;8366170;28;19920;-45
2022/12/11 10:31:51;;;;;;;;;;;16.40;38.30;;;;;;8365591;28;19925;-45
2022/12/11 10:35:53;;;;;;;;;;;16.40;38.20;;;;;;8366232;28;20011;-45
2022/12/11 10:39:53;;;;;;;;;;;16.50;38.10;;;;;;8365212;28;19921;-45
2022/12/11 10:43:53;;;;;;;;;;;16.50;38.10;;;;;;8365469;28;19917;-45
2022/12/11 10:48:04;;;;;;;;;;;16.50;38.10;;;;;;8365468;28;20274;-45
2022/12/11 10:52:10;;;;;;;;;;;16.50;38.00;;;;;;8363907;28;20071;-45
2022/12/11 10:56:10;;;;;;;;;;;16.50;38.10;;;;;;8365198;28;19912;-45
2022/12/11 11:00:32;;;;;;;;;;;16.50;38.00;;;;;;8365348;28;19912;-45
2022/12/11 11:04:37;;;;;;;;;;;16.50;37.90;;;;;;8364545;28;20317;-45
2022/12/11 11:08:43;;;;;;;;;;;16.50;38.00;;;;;;8353076;28;20003;-45
2022/12/11 11:12:47;;;;;;;;;;;16.50;38.00;;;;;;8364635;28;19924;-46
2022/12/11 11:16:49;;;;;;;;;;;16.40;38.00;;;;;;8364247;28;19917;-45
2022/12/11 11:20:49;;;;;;;;;;;16.40;38.10;;;;;;8364851;28;19913;-45
2022/12/11 11:24:55;;;;;;;;;;;16.50;38.20;;;;;;8363963;28;19923;-45
2022/12/11 11:28:56;;;;;;;;;;;16.40;38.20;;;;;;8364994;28;20397;-44
2022/12/11 11:33:03;;;;;;;;;;;16.40;38.30;;;;;;8364209;28;19928;-45
2022/12/11 11:37:04;;;;;;;;;;;16.40;38.30;;;;;;8363775;28;19966;-45
2022/12/11 11:41:16;;;;;;;;;;;16.40;38.30;;;;;;8364160;28;19934;-47
2022/12/11 11:45:19;;;;;;;;;;;16.40;38.30;;;;;;8364060;28;19921;-44
2022/12/11 11:49:35;;;;;;;;;;;16.40;38.30;;;;;;8363269;28;19931;-46
2022/12/11 11:53:39;;;;;;;;;;;16.30;38.30;;;;;;8363364;28;20004;-45
2022/12/11 11:57:46;;;;;;;;;;;16.40;38.30;;;;;;8363517;28;19943;-45
2022/12/11 12:01:47;;;;;;;;;;;16.40;38.30;;;;;;8363049;28;20408;-45
2022/12/11 12:05:47;;;;;;;;;;;16.40;38.30;;;;;;8363494;28;19958;-45
2022/12/11 12:09:47;;;;;;;;;;;16.50;38.30;;;;;;8362482;28;19920;-44
2022/12/11 12:14:02;;;;;;;;;;;16.50;38.30;;;;;;8362810;28;20396;-45
2022/12/11 12:18:08;;;;;;;;;;;16.60;38.30;;;;;;8363286;28;20010;-45
2022/12/11 12:22:18;;;;;;;;;;;16.60;38.20;;;;;;8362384;28;19920;-46
2022/12/11 12:26:18;;;;;;;;;;;16.60;38.20;;;;;;8363269;28;19989;-45
2022/12/11 12:30:19;;;;;;;;;;;16.60;38.20;;;;;;8362707;28;19929;-45
2022/12/11 12:34:28;;;;;;;;;;;16.60;38.10;;;;;;8362372;28;19967;-46
2022/12/11 12:38:47;;;;;;;;;;;16.60;38.10;;;;;;8362977;28;19920;-45
2022/12/11 12:42:55;;;;;;;;;;;16.70;38.30;;;;;;8362248;28;20386;-45
2022/12/11 12:46:58;;;;;;;;;;;16.70;38.30;;;;;;8363025;28;19913;-47
2022/12/11 12:50:59;;;;;;;;;;;16.70;38.30;;;;;;8362792;28;19925;-46
2022/12/11 12:55:17;;;;;;;;;;;16.80;38.30;;;;;;8362167;28;19913;-46
2022/12/11 12:59:21;;;;;;;;;;;16.90;38.30;;;;;;8362802;28;19917;-46
2022/12/11 13:03:25;;;;;;;;;;;16.90;38.20;;;;;;8362468;28;20011;-46
2022/12/11 13:07:30;;;;;;;;;;;16.90;38.20;;;;;;8362008;28;19917;-46
2022/12/11 13:11:31;;;;;;;;;;;17.00;38.20;;;;;;8362359;28;19929;-45
2022/12/11 13:15:42;;;;;;;;;;;17.00;38.10;;;;;;8366302;28;19917;-45
2022/12/11 13:19:43;;;;;;;;;;;17.10;38.10;;;;;;8367911;28;19917;-46
2022/12/11 13:23:43;;;;;;;;;;;17.10;38.10;;;;;;8366921;28;19969;-45
2022/12/11 13:27:44;;;;;;;;;;;17.20;38.20;;;;;;8362854;28;19927;-42
2022/12/11 13:31:55;;;;;;;;;;;17.10;37.50;;;;;;8366375;28;19932;-43
2022/12/11 13:36:04;;;;;;;;;;;17.00;37.70;;;;;;8366770;28;19916;-43
2022/12/11 13:40:07;;;;;;;;;;;17.10;37.90;;;;;;8365568;28;19932;-47
2022/12/11 13:44:14;;;;;;;;;;;17.20;37.90;;;;;;8366845;28;20046;-45
2022/12/11 13:48:17;;;;;;;;;;;17.20;37.90;;;;;;8366743;28;20336;-45
2022/12/11 13:52:27;;;;;;;;;;;17.30;38.40;;;;;;8365512;28;19936;-45
2022/12/11 13:56:28;;;;;;;;;;;17.30;38.00;;;;;;8367420;28;20294;-46
2022/12/11 14:00:30;;;;;;;;;;;17.40;37.90;;;;;;8366977;28;19965;-45
2022/12/11 14:04:32;;;;;;;;;;;17.40;37.70;;;;;;8366590;28;19986;-44
2022/12/11 14:08:34;;;;;;;;;;;17.50;37.80;;;;;;8367001;28;19913;-46
2022/12/11 14:12:35;;;;;;;;;;;17.50;37.70;;;;;;8341628;28;19979;-46
2022/12/11 14:16:36;;;;;;;;;;;17.50;38.00;;;;;;8366429;28;19916;-45
2022/12/11 14:20:37;;;;;;;;;;;17.60;38.40;;;;;;8366287;28;19917;-46
2022/12/11 14:24:47;;;;;;;;;;;17.60;38.60;;;;;;8366115;28;19913;-46
2022/12/11 14:28:47;;;;;;;;;;;17.70;38.60;;;;;;8365680;28;20367;-44
2022/12/11 14:32:48;;;;;;;;;;;17.70;38.60;;;;;;8365903;28;19963;-45
2022/12/11 14:36:49;;;;;;;;;;;17.70;38.70;;;;;;8365960;28;19996;-45
2022/12/11 14:40:56;;;;;;;;;;;17.70;38.90;;;;;;8366276;28;19956;-48
2022/12/11 14:45:17;;;;;;;;;;;17.80;38.80;;;;;;8366019;28;19917;-45
2022/12/11 14:49:27;;;;;;;;;;;17.80;39.20;;;;;;8357699;28;20340;-46
2022/12/11 14:53:39;;;;;;;;;;;17.90;39.10;;;;;;8365597;28;19929;-45
2022/12/11 14:57:42;;;;;;;;;;;17.90;39.10;;;;;;8365461;28;19923;-44
2022/12/11 15:01:43;;;;;;;;;;;18.00;39.20;;;;;;8364804;28;19917;-45
2022/12/11 15:05:54;;;;;;;;;;;18.00;39.10;;;;;;8364890;28;19978;-44
2022/12/11 15:09:55;;;;;;;;;;;18.00;39.10;;;;;;8363046;28;19921;-47
2022/12/11 15:13:57;;;;;;;;;;;18.10;39.10;;;;;;8364592;28;19924;-46
2022/12/11 15:17:58;;;;;;;;;;;18.10;39.10;;;;;;8364702;28;20321;-45
2022/12/11 15:22:05;;;;;;;;;;;18.20;39.00;;;;;;8364338;28;19913;-46
2022/12/11 15:26:06;;;;;;;;;;;18.20;39.10;;;;;;8364641;28;20381;-47
2022/12/11 15:30:20;;;;;;;;;;;18.20;39.20;;;;;;8364293;28;19927;-45
2022/12/11 15:34:22;;;;;;;;;;;18.20;39.10;;;;;;8363818;28;20469;-46
2022/12/11 15:38:30;;;;;;;;;;;18.20;39.00;;;;;;8363627;28;19917;-44
2022/12/11 15:42:34;;;;;;;;;;;18.30;39.00;;;;;;8364034;28;19964;-44
2022/12/11 15:46:34;;;;;;;;;;;18.30;38.90;;;;;;8363269;28;19929;-46
2022/12/11 15:50:35;;;;;;;;;;;18.30;39.00;;;;;;8363683;28;20377;-45
2022/12/11 15:54:35;;;;;;;;;;;18.20;38.30;;;;;;8363598;28;19952;-46
2022/12/11 15:58:36;;;;;;;;;;;18.10;38.30;;;;;;8363031;28;20463;-46
2022/12/11 16:02:36;;;;;;;;;;;18.00;37.90;;;;;;8363607;28;19913;-46
2022/12/11 16:06:37;;;;;;;;;;;18.00;37.80;;;;;;8363257;28;19924;-46
2022/12/11 16:10:37;;;;;;;;;;;18.00;37.70;;;;;;8362846;28;19925;-47
2022/12/11 16:14:38;;;;;;;;;;;18.00;37.60;;;;;;8363583;28;19913;-45
2022/12/11 16:18:38;;;;;;;;;;;18.00;37.50;;;;;;8362970;28;19917;-45
2022/12/11 16:22:39;;;;;;;;;;;17.90;37.50;;;;;;8362697;28;19935;-45
2022/12/11 16:26:39;;;;;;;;;;;17.90;37.60;;;;;;8362854;28;19916;-45
2022/12/11 16:30:42;;;;;;;;;;;17.90;37.60;;;;;;8362718;28;19929;-45
2022/12/11 16:34:42;;;;;;;;;;;17.80;37.70;;;;;;8362426;28;20373;-46
2022/12/11 16:38:44;;;;;;;;;;;17.80;37.70;;;;;;8362726;28;19921;-45
2022/12/11 16:42:45;;;;;;;;;;;17.70;37.80;;;;;;8363130;28;19991;-45
2022/12/11 16:46:46;;;;;;;;;;;17.70;37.90;;;;;;8362136;28;20334;-46
2022/12/11 16:50:47;;;;;;;;;;;17.60;37.90;;;;;;8368803;28;19970;-47
2022/12/11 16:54:47;;;;;;;;;;;17.60;37.90;;;;;;8368722;28;19913;-44
2022/12/11 16:58:48;;;;;;;;;;;17.50;37.90;;;;;;8369145;28;19967;-45
2022/12/11 17:02:48;;;;;;;;;;;17.50;38.10;;;;;;8369280;28;19917;-44
2022/12/11 17:06:49;;;;;;;;;;;17.50;38.10;;;;;;8367427;28;19939;-44
2022/12/11 17:10:50;;;;;;;;;;;17.40;37.90;;;;;;8368766;28;19924;-45
2022/12/11 17:14:50;;;;;;;;;;;17.40;37.90;;;;;;8368739;28;20440;-44
2022/12/11 17:18:51;;;;;;;;;;;17.30;38.00;;;;;;8367877;28;19924;-45
2022/12/11 17:22:51;;;;;;;;;;;17.30;38.10;;;;;;8368432;28;19913;-45
2022/12/11 17:26:53;;;;;;;;;;;17.20;38.20;;;;;;8368056;28;19916;-44
2022/12/11 17:30:53;;;;;;;;;;;17.20;38.20;;;;;;8367099;28;19920;-46
2022/12/11 17:34:54;;;;;;;;;;;17.20;38.30;;;;;;8367806;28;19920;-45
2022/12/11 17:38:54;;;;;;;;;;;17.10;38.20;;;;;;8367599;28;19952;-45
2022/12/11 17:42:55;;;;;;;;;;;17.10;38.10;;;;;;8367316;28;19916;-44
2022/12/11 17:46:58;;;;;;;;;;;17.10;38.00;;;;;;8367285;28;19927;-45
2022/12/11 17:51:01;;;;;;;;;;;17.10;38.00;;;;;;8367209;28;19921;-44
2022/12/11 17:55:02;;;;;;;;;;;17.10;38.00;;;;;;8366807;28;19917;-45
2022/12/11 17:59:03;;;;;;;;;;;17.10;38.00;;;;;;8366539;28;19913;-44
2022/12/11 18:03:03;;;;;;;;;;;17.10;37.80;;;;;;8367488;28;19979;-44
2022/12/11 18:07:04;;;;;;;;;;;17.10;37.70;;;;;;8366588;28;20395;-44
2022/12/11 18:11:07;;;;;;;;;;;17.10;37.70;;;;;;8366691;28;19943;-45
2022/12/11 18:15:09;;;;;;;;;;;17.10;37.60;;;;;;8366689;28;20404;-45
2022/12/11 18:19:10;;;;;;;;;;;17.10;37.60;;;;;;8366038;28;19917;-46
2022/12/11 18:23:10;;;;;;;;;;;17.10;37.50;;;;;;8366655;28;19927;-46
2022/12/11 18:27:13;;;;;;;;;;;17.10;37.50;;;;;;8366108;28;19917;-45
2022/12/11 18:31:14;;;;;;;;;;;17.10;37.50;;;;;;8365644;28;19925;-45
2022/12/11 18:35:14;;;;;;;;;;;17.10;37.50;;;;;;8366088;28;20010;-46
2022/12/11 18:39:15;;;;;;;;;;;17.10;37.60;;;;;;8365904;28;19917;-46
2022/12/11 18:43:15;;;;;;;;;;;17.10;37.60;;;;;;8365551;28;19924;-46
2022/12/11 18:47:15;;;;;;;;;;;17.00;37.70;;;;;;8365896;28;19917;-45
2022/12/11 18:51:18;;;;;;;;;;;17.00;37.70;;;;;;8365467;28;19920;-45
2022/12/11 18:55:19;;;;;;;;;;;17.00;37.80;;;;;;8364889;28;20358;-45
2022/12/11 18:59:19;;;;;;;;;;;16.90;37.80;;;;;;8365303;28;19924;-44
2022/12/11 19:03:20;;;;;;;;;;;16.90;37.80;;;;;;8365355;28;19921;-45
2022/12/11 19:07:20;;;;;;;;;;;16.90;37.80;;;;;;8364587;28;19924;-45
2022/12/11 19:11:22;;;;;;;;;;;16.80;37.80;;;;;;8363899;28;19925;-45
2022/12/11 19:15:22;;;;;;;;;;;16.80;37.80;;;;;;8364626;28;20000;-45
2022/12/11 19:19:23;;;;;;;;;;;16.80;37.70;;;;;;8364527;28;20409;-45
2022/12/11 19:23:24;;;;;;;;;;;16.80;37.70;;;;;;8364351;28;19917;-45
2022/12/11 19:27:24;;;;;;;;;;;16.80;37.60;;;;;;8364380;28;19948;-45
2022/12/11 19:31:25;;;;;;;;;;;16.80;37.60;;;;;;8363802;28;19925;-45
2022/12/11 19:35:26;;;;;;;;;;;16.80;37.50;;;;;;8364295;28;20273;-45
2022/12/11 19:39:26;;;;;;;;;;;16.80;37.50;;;;;;8364365;28;19916;-46
2022/12/11 19:43:27;;;;;;;;;;;16.80;37.50;;;;;;8363320;28;19924;-45
2022/12/11 19:47:27;;;;;;;;;;;16.80;37.40;;;;;;8363829;28;19916;-44
2022/12/11 19:51:30;;;;;;;;;;;16.80;37.40;;;;;;8363422;28;19921;-44
2022/12/11 19:55:30;;;;;;;;;;;16.80;37.30;;;;;;8363044;28;19927;-45
2022/12/11 19:59:31;;;;;;;;;;;16.90;37.30;;;;;;8363846;28;19913;-43
2022/12/11 20:03:31;;;;;;;;;;;16.80;37.20;;;;;;8363382;28;19924;-46
2022/12/11 20:07:32;;;;;;;;;;;16.90;37.20;;;;;;8356846;28;20368;-45
2022/12/11 20:11:32;;;;;;;;;;;16.90;37.30;;;;;;8363303;28;19924;-45
2022/12/11 20:15:33;;;;;;;;;;;16.80;37.20;;;;;;8368033;28;19935;-46
2022/12/11 20:19:34;;;;;;;;;;;16.80;37.10;;;;;;8396040;28;19924;-45
2022/12/11 20:23:35;;;;;;;;;;;16.80;37.00;;;;;;8395969;28;19927;-45
2022/12/11 20:27:36;;;;;;;;;;;16.80;37.10;;;;;;8395964;28;20132;-44
2022/12/11 20:31:36;;;;;;;;;;;16.80;37.10;;;;;;8373979;28;19940;-45
2022/12/11 20:35:38;;;;;;;;;;;16.80;37.20;;;;;;8335662;28;20046;-45
2022/12/11 20:39:39;;;;;;;;;;;16.80;37.30;;;;;;8363137;28;19912;-43
2022/12/11 20:43:40;;;;;;;;;;;16.70;37.30;;;;;;8362354;28;20439;-44
2022/12/11 20:47:40;;;;;;;;;;;16.70;37.40;;;;;;8362602;28;20026;-44
2022/12/11 20:51:40;;;;;;;;;;;16.70;37.40;;;;;;8361350;28;20019;-44
2022/12/11 20:55:41;;;;;;;;;;;16.60;37.40;;;;;;8340007;28;19917;-44
2022/12/11 20:59:43;;;;;;;;;;;16.60;37.40;;;;;;8358334;28;20345;-44
2022/12/11 21:03:43;;;;;;;;;;;16.60;37.40;;;;;;8358985;28;19923;-45
2022/12/11 21:07:44;;;;;;;;;;;16.60;37.30;;;;;;8361835;28;20306;-45
2022/12/11 21:11:44;;;;;;;;;;;16.60;37.20;;;;;;8362363;28;19974;-44
2022/12/11 21:15:45;;;;;;;;;;;16.60;37.30;;;;;;8362250;28;19917;-45
2022/12/11 21:19:45;;;;;;;;;;;16.60;37.30;;;;;;8362485;28;19951;-44
2022/12/11 21:23:46;;;;;;;;;;;16.50;37.10;;;;;;8362059;28;20374;-45
2022/12/11 21:27:47;;;;;;;;;;;16.50;37.10;;;;;;8361506;28;19924;-43
2022/12/11 21:31:47;;;;;;;;;;;16.50;37.10;;;;;;8362094;28;20019;-43
2022/12/11 21:35:55;;;;;;;;;;;16.50;37.10;;;;;;8364773;28;19917;-46
2022/12/11 21:39:56;;;;;;;;;;;16.50;37.60;;;;;;8367379;28;20037;-43
2022/12/11 21:43:56;;;;;;;;;;;16.50;37.10;;;;;;8367651;28;20031;-43
2022/12/11 21:47:56;;;;;;;;;;;16.50;37.00;;;;;;8367527;28;19917;-44
2022/12/11 21:51:57;;;;;;;;;;;16.50;37.00;;;;;;8367417;28;19925;-44
2022/12/11 21:55:58;;;;;;;;;;;16.50;37.00;;;;;;8367375;28;19952;-43
2022/12/11 21:59:58;;;;;;;;;;;16.40;36.90;;;;;;8367251;28;20374;-44
2022/12/11 22:03:59;;;;;;;;;;;16.50;37.00;;;;;;8366551;28;19921;-44
2022/12/11 22:07:59;;;;;;;;;;;16.50;37.00;;;;;;8366733;28;20050;-44
2022/12/11 22:12:00;;;;;;;;;;;16.50;36.80;;;;;;8366642;28;19968;-45
2022/12/11 22:16:01;;;;;;;;;;;16.50;36.90;;;;;;8366254;28;19917;-45
2022/12/11 22:20:02;;;;;;;;;;;16.50;36.90;;;;;;8367055;28;20289;-45
2022/12/11 22:24:02;;;;;;;;;;;16.50;36.80;;;;;;8366355;28;19924;-44
2022/12/11 22:28:03;;;;;;;;;;;16.40;36.80;;;;;;8365712;28;19917;-44
2022/12/11 22:32:03;;;;;;;;;;;16.40;36.70;;;;;;8366324;28;20446;-45
2022/12/11 22:36:05;;;;;;;;;;;16.40;36.80;;;;;;8365893;28;20389;-44
2022/12/11 22:40:05;;;;;;;;;;;16.40;36.70;;;;;;8365675;28;19931;-45
2022/12/11 22:44:09;;;;;;;;;;;16.40;36.70;;;;;;8365738;28;19947;-44
2022/12/11 22:48:09;;;;;;;;;;;16.40;36.70;;;;;;8365692;28;19956;-45
2022/12/11 22:52:10;;;;;;;;;;;16.40;36.70;;;;;;8364888;28;19932;-45
2022/12/11 22:56:11;;;;;;;;;;;16.40;36.70;;;;;;8365554;28;20421;-45
2022/12/11 23:00:12;;;;;;;;;;;16.40;36.60;;;;;;8365610;28;19913;-45
2022/12/11 23:04:13;;;;;;;;;;;16.40;36.60;;;;;;8387526;28;19940;-44
2022/12/11 23:08:13;;;;;;;;;;;16.40;36.60;;;;;;8377209;28;19924;-45
2022/12/11 23:12:14;;;;;;;;;;;16.40;36.60;;;;;;8377184;28;19965;-45
2022/12/11 23:16:14;;;;;;;;;;;16.40;36.60;;;;;;8388928;28;19912;-44
2022/12/11 23:20:15;;;;;;;;;;;16.40;36.50;;;;;;8376971;28;19913;-45
2022/12/11 23:24:16;;;;;;;;;;;16.30;36.60;;;;;;8376839;28;19921;-44
2022/12/11 23:28:16;;;;;;;;;;;16.40;36.60;;;;;;8388512;28;20027;-45
2022/12/11 23:32:16;;;;;;;;;;;16.30;36.50;;;;;;8376829;28;19928;-45
2022/12/11 23:36:17;;;;;;;;;;;16.40;36.40;;;;;;8376256;28;19913;-45